Moore, Texas
Current Conditions -  °F | °C
As of 1:35 PM on Thursday 27 Nov 2014 (Local Time) from KCVB Reporting Station
Clear Clear  
Wind Chill: 19°   Ceiling: Unl
Heat Index: 19°   Visibility: 10mi
Dew Point: -1°   Wind: 10mph
Humidity: 26%   Direction: 100°E
Pressure: 30.43"   Gusts: NA
Location:  29.06°N, 99.01°W
Report Text: KCVB 271935Z AUTO 10009KT 10SM CLR 19/M01 A3043 RMK AO2 T01861013
Loading
Personal Weather Stations






























Interactive Weather Map New forecast layout! Learn more

10-Day Weather Forecast

Advertisements
Track Severe Weather on mobile